createdAt,value
2023-02-26T00:00:15.068Z,1.02
2023-02-26T00:02:43.066Z,0.98
2023-02-26T00:05:10.575Z,1.50
2023-02-26T00:07:38.150Z,1.10
2023-02-26T00:10:06.526Z,1.42
2023-02-26T00:12:33.790Z,0.82
2023-02-26T00:15:01.488Z,1.17
2023-02-26T00:17:42.612Z,1.38
2023-02-26T00:20:11.707Z,0.98
2023-02-26T00:22:42.051Z,0.80
2023-02-26T00:25:09.711Z,0.77
2023-02-26T00:27:36.971Z,1.02
2023-02-26T00:30:07.994Z,0.90
2023-02-26T00:32:35.641Z,1.00
2023-02-26T00:35:03.213Z,0.60
2023-02-26T00:37:48.823Z,0.85
2023-02-26T00:40:16.525Z,0.70
2023-02-26T00:42:43.787Z,0.40
2023-02-26T00:45:12.569Z,1.10
2023-02-26T00:47:52.207Z,0.88
2023-02-26T00:50:19.391Z,0.57
2023-02-26T00:53:04.916Z,0.65
2023-02-26T00:55:32.302Z,0.60
2023-02-26T00:57:59.362Z,0.77
2023-02-26T01:00:26.563Z,0.50
2023-02-26T01:02:53.824Z,0.75
2023-02-26T01:05:21.216Z,0.57
2023-02-26T01:08:08.690Z,0.63
2023-02-26T01:10:35.947Z,0.70
2023-02-26T01:13:03.190Z,0.68
2023-02-26T01:15:30.523Z,0.50
2023-02-26T01:18:07.783Z,0.70
2023-02-26T01:20:39.255Z,0.60
2023-02-26T01:23:16.572Z,0.52
2023-02-26T01:25:43.775Z,0.57
2023-02-26T01:28:11.054Z,0.82
2023-02-26T01:30:38.476Z,0.80
2023-02-26T01:33:17.573Z,1.02
2023-02-26T01:35:55.329Z,0.47
2023-02-26T01:38:28.888Z,0.43
2023-02-26T01:41:04.914Z,0.57
2023-02-26T01:43:46.535Z,0.57
2023-02-26T01:46:25.573Z,0.82
2023-02-26T01:48:54.132Z,0.32
2023-02-26T01:51:41.146Z,0.30
2023-02-26T01:54:08.688Z,0.45
2023-02-26T01:56:36.348Z,1.17
2023-02-26T01:59:05.969Z,0.43
2023-02-26T02:01:33.909Z,0.65
2023-02-26T02:04:01.270Z,0.73
2023-02-26T02:06:28.721Z,0.50
2023-02-26T02:08:56.277Z,0.52
2023-02-26T02:11:23.722Z,0.88
2023-02-26T02:14:17.156Z,1.27
2023-02-26T02:16:48.818Z,0.45
2023-02-26T02:19:18.686Z,0.60
2023-02-26T02:22:03.234Z,0.73
2023-02-26T02:24:30.534Z,0.50
2023-02-26T02:26:59.028Z,0.60
2023-02-26T02:29:42.450Z,0.57
2023-02-26T02:32:30.036Z,0.63
2023-02-26T02:35:16.409Z,1.20
2023-02-26T02:37:52.831Z,0.57
2023-02-26T02:40:22.587Z,0.65
2023-02-26T02:43:04.634Z,0.40
2023-02-26T02:45:38.778Z,0.57
2023-02-26T02:48:09.843Z,0.65
2023-02-26T02:50:44.117Z,0.47
2023-02-26T02:53:26.485Z,0.57
2023-02-26T02:56:01.966Z,1.60
2023-02-26T02:58:31.074Z,0.35
2023-02-26T03:01:01.478Z,0.85
2023-02-26T03:03:37.862Z,0.55
2023-02-26T03:06:05.125Z,1.00
2023-02-26T03:08:35.184Z,0.60
2023-02-26T03:11:02.368Z,0.75
2023-02-26T03:13:29.661Z,0.77
2023-02-26T03:15:56.754Z,0.70
2023-02-26T03:18:42.610Z,0.57
2023-02-26T03:21:14.253Z,0.60
2023-02-26T03:23:47.083Z,0.75
2023-02-26T03:26:16.124Z,0.70
2023-02-26T03:28:52.761Z,0.93
2023-02-26T03:31:22.417Z,0.60
2023-02-26T03:33:52.550Z,1.20
2023-02-26T03:36:34.678Z,0.55
2023-02-26T03:39:13.590Z,0.40
2023-02-26T03:41:45.109Z,0.50
2023-02-26T03:44:14.970Z,0.40
2023-02-26T03:46:45.480Z,0.47
2023-02-26T03:49:18.882Z,0.30
2023-02-26T03:51:46.254Z,0.70
2023-02-26T03:54:20.011Z,0.90
2023-02-26T03:56:48.172Z,0.20
2023-02-26T03:59:16.122Z,0.43
2023-02-26T04:01:55.556Z,0.40
2023-02-26T04:04:32.465Z,0.50
2023-02-26T04:06:59.807Z,0.55
2023-02-26T04:09:27.345Z,0.25
2023-02-26T04:11:54.545Z,0.50
2023-02-26T04:14:21.668Z,0.90
2023-02-26T04:16:48.856Z,0.35
2023-02-26T04:19:15.975Z,0.63
2023-02-26T04:21:43.105Z,0.30
2023-02-26T04:24:10.312Z,0.43
2023-02-26T04:26:37.430Z,0.35
2023-02-26T04:29:04.802Z,0.30
2023-02-26T04:31:31.966Z,0.40
2023-02-26T04:33:59.006Z,0.50
2023-02-26T04:36:26.324Z,0.50
2023-02-26T04:38:53.813Z,0.45
2023-02-26T04:41:20.890Z,0.32
2023-02-26T04:43:48.055Z,0.30
2023-02-26T04:46:15.360Z,0.20
2023-02-26T04:48:42.496Z,0.30
2023-02-26T04:51:09.542Z,0.40
2023-02-26T04:53:36.657Z,0.70
2023-02-26T04:56:03.728Z,0.52
2023-02-26T04:58:30.846Z,0.35
2023-02-26T05:00:58.171Z,0.30
2023-02-26T05:03:25.275Z,0.55
2023-02-26T05:05:52.539Z,0.60
2023-02-26T05:08:19.643Z,0.40
2023-02-26T05:10:46.968Z,0.45
2023-02-26T05:13:14.069Z,0.40
2023-02-26T05:15:41.279Z,0.30
2023-02-26T05:18:08.426Z,0.38
2023-02-26T05:20:35.559Z,0.25
2023-02-26T05:23:02.731Z,0.40
2023-02-26T05:25:30.060Z,0.70
2023-02-26T05:27:57.240Z,0.40
2023-02-26T05:30:24.762Z,0.32
2023-02-26T05:32:51.938Z,0.30
2023-02-26T05:35:19.002Z,0.20
2023-02-26T05:37:46.048Z,0.20
2023-02-26T05:40:14.087Z,0.40
2023-02-26T05:42:41.306Z,0.30
2023-02-26T05:45:08.601Z,0.20
2023-02-26T05:47:35.931Z,0.50
2023-02-26T05:50:03.592Z,0.57
2023-02-26T05:52:30.690Z,0.35
2023-02-26T05:54:57.774Z,0.38
2023-02-26T05:57:25.197Z,0.30
2023-02-26T05:59:52.308Z,0.15
2023-02-26T06:02:19.792Z,0.30
2023-02-26T06:04:47.056Z,0.30
2023-02-26T06:07:14.220Z,0.60
2023-02-26T06:09:41.332Z,0.45
2023-02-26T06:12:08.604Z,0.40
2023-02-26T06:14:35.796Z,0.50
2023-02-26T06:17:04.041Z,0.50
2023-02-26T06:19:31.193Z,0.28
2023-02-26T06:21:58.334Z,0.47
2023-02-26T06:24:25.560Z,0.55
2023-02-26T06:26:52.828Z,0.30
2023-02-26T06:29:20.712Z,0.43
2023-02-26T06:31:47.977Z,0.28
2023-02-26T06:34:15.215Z,0.40
2023-02-26T06:36:42.747Z,0.43
2023-02-26T06:39:10.301Z,0.35
2023-02-26T06:41:37.386Z,0.47
2023-02-26T06:44:05.387Z,0.30
2023-02-26T06:46:32.457Z,0.28
2023-02-26T06:49:00.303Z,0.47
2023-02-26T06:51:27.471Z,1.10
2023-02-26T06:53:54.610Z,0.63
2023-02-26T06:56:23.969Z,0.40
2023-02-26T06:58:51.507Z,0.63
2023-02-26T07:01:18.707Z,0.30
2023-02-26T07:03:45.818Z,0.30
2023-02-26T07:06:26.445Z,0.40
2023-02-26T07:08:55.267Z,0.47
2023-02-26T07:11:22.537Z,0.47
2023-02-26T07:13:51.410Z,0.43
2023-02-26T07:16:18.676Z,0.55
2023-02-26T07:18:45.860Z,0.50
2023-02-26T07:21:13.037Z,0.45
2023-02-26T07:23:40.088Z,0.43
2023-02-26T07:26:09.000Z,0.73
2023-02-26T07:28:36.386Z,0.38
2023-02-26T07:31:03.623Z,0.82
2023-02-26T07:33:31.909Z,0.50
2023-02-26T07:35:58.995Z,0.30
2023-02-26T07:38:26.119Z,0.60
2023-02-26T07:40:56.379Z,0.50
2023-02-26T07:43:24.662Z,0.65
2023-02-26T07:45:52.539Z,0.57
2023-02-26T07:48:19.735Z,0.55
2023-02-26T07:50:47.227Z,0.60
2023-02-26T07:53:14.352Z,0.43
2023-02-26T07:55:41.461Z,0.50
2023-02-26T07:58:08.557Z,0.45
2023-02-26T08:00:35.704Z,0.50
2023-02-26T08:03:02.799Z,0.60
2023-02-26T08:05:30.338Z,0.30
2023-02-26T08:07:57.548Z,0.80
2023-02-26T08:10:24.676Z,0.45
2023-02-26T08:12:51.791Z,0.60
2023-02-26T08:15:18.912Z,0.50
2023-02-26T08:17:46.012Z,0.40
2023-02-26T08:20:15.309Z,0.40
2023-02-26T08:22:42.495Z,0.50
2023-02-26T08:25:09.665Z,0.47
2023-02-26T08:27:36.808Z,0.50
2023-02-26T08:30:04.620Z,0.63
2023-02-26T08:32:31.784Z,0.40
2023-02-26T08:34:58.895Z,0.30
2023-02-26T08:37:26.071Z,0.35
2023-02-26T08:39:53.551Z,0.60
2023-02-26T08:42:20.989Z,0.50
2023-02-26T08:44:48.317Z,0.75
2023-02-26T08:47:21.784Z,0.30
2023-02-26T08:49:58.008Z,0.60
2023-02-26T08:52:25.514Z,0.20
2023-02-26T08:54:55.252Z,0.30
2023-02-26T08:57:22.993Z,0.52
2023-02-26T08:59:56.197Z,0.50
2023-02-26T09:02:25.816Z,0.40
2023-02-26T09:04:53.412Z,0.30
2023-02-26T09:07:23.957Z,0.22
2023-02-26T09:09:51.402Z,0.38
2023-02-26T09:12:26.405Z,0.30
2023-02-26T09:14:53.804Z,0.30
2023-02-26T09:17:21.151Z,0.45
2023-02-26T09:19:51.047Z,0.20
2023-02-26T09:22:23.851Z,0.28
2023-02-26T09:24:56.828Z,0.30
2023-02-26T09:27:27.093Z,1.00
2023-02-26T09:29:56.406Z,0.60
2023-02-26T09:32:24.169Z,0.30
2023-02-26T09:34:51.807Z,0.40
2023-02-26T09:37:19.121Z,0.47
2023-02-26T09:39:46.462Z,0.30
2023-02-26T09:42:28.761Z,0.32
2023-02-26T09:45:00.099Z,0.40
2023-02-26T09:47:41.735Z,0.30
2023-02-26T09:50:12.106Z,0.20
2023-02-26T09:52:45.872Z,0.38
2023-02-26T09:55:12.929Z,0.32
2023-02-26T09:57:42.919Z,0.40
2023-02-26T10:00:24.600Z,0.40
2023-02-26T10:03:01.076Z,0.30
2023-02-26T10:05:41.020Z,0.35
2023-02-26T10:08:12.761Z,0.30
2023-02-26T10:10:44.946Z,0.30
2023-02-26T10:13:20.382Z,0.30
2023-02-26T10:15:48.958Z,0.43
2023-02-26T10:18:27.388Z,0.30
2023-02-26T10:20:54.480Z,0.63
2023-02-26T10:23:21.630Z,0.57
2023-02-26T10:25:50.290Z,0.20
2023-02-26T10:28:17.529Z,0.20
2023-02-26T10:30:52.137Z,0.40
2023-02-26T10:33:38.593Z,0.28
2023-02-26T10:36:24.044Z,0.88
2023-02-26T10:38:53.112Z,0.22
2023-02-26T10:41:25.164Z,0.73
2023-02-26T10:43:56.534Z,0.20
2023-02-26T10:46:46.716Z,0.30
2023-02-26T10:49:32.743Z,0.32
2023-02-26T10:52:03.782Z,0.38
2023-02-26T10:54:31.024Z,0.38
2023-02-26T10:56:58.134Z,0.20
2023-02-26T10:59:25.254Z,0.40
2023-02-26T11:01:52.704Z,0.32
2023-02-26T11:04:23.442Z,0.98
2023-02-26T11:06:52.339Z,0.35
2023-02-26T11:09:19.426Z,0.40
2023-02-26T11:11:48.080Z,0.35
2023-02-26T11:14:16.015Z,0.20
2023-02-26T11:16:55.489Z,0.30
2023-02-26T11:19:34.494Z,0.35
2023-02-26T11:22:03.506Z,0.20
2023-02-26T11:24:47.696Z,0.30
2023-02-26T11:27:16.429Z,0.30
2023-02-26T11:29:46.801Z,0.38
2023-02-26T11:32:22.401Z,0.25
2023-02-26T11:34:50.915Z,0.40
2023-02-26T11:37:20.683Z,0.40
2023-02-26T11:39:47.818Z,0.20
2023-02-26T11:42:15.967Z,0.25
2023-02-26T11:44:46.609Z,0.28
2023-02-26T11:47:18.644Z,0.17
2023-02-26T11:52:12.784Z,0.22
2023-02-26T11:54:40.200Z,0.40
2023-02-26T11:57:13.689Z,0.40
2023-02-26T11:59:40.920Z,0.57
2023-02-26T12:02:12.838Z,0.55
2023-02-26T12:07:15.488Z,1.25
2023-02-26T12:09:43.039Z,0.70
2023-02-26T12:12:24.997Z,0.40
2023-02-26T12:15:01.347Z,0.40
2023-02-26T12:17:28.471Z,0.20
2023-02-26T12:19:58.552Z,0.25
2023-02-26T12:22:26.884Z,0.30
2023-02-26T12:24:59.014Z,0.20
2023-02-26T12:27:26.184Z,0.43
2023-02-26T12:30:03.270Z,0.30
2023-02-26T12:32:30.534Z,0.20
2023-02-26T12:35:12.469Z,0.30
2023-02-26T12:37:48.612Z,0.20
2023-02-26T12:40:18.513Z,0.32
2023-02-26T12:42:57.466Z,0.30
2023-02-26T12:45:24.591Z,0.20
2023-02-26T12:48:00.952Z,0.30
2023-02-26T12:50:40.179Z,0.20
2023-02-26T12:53:10.651Z,0.20
2023-02-26T12:55:43.702Z,0.20
2023-02-26T12:58:27.202Z,0.30
2023-02-26T13:01:08.998Z,0.30
2023-02-26T13:03:39.165Z,0.60
2023-02-26T13:06:06.276Z,0.20
2023-02-26T13:08:40.808Z,0.20
2023-02-26T13:11:27.146Z,0.30
2023-02-26T13:14:16.565Z,0.20
2023-02-26T13:16:47.215Z,0.35
2023-02-26T13:19:38.317Z,0.20
2023-02-26T13:22:25.656Z,0.30
2023-02-26T13:24:59.246Z,0.60
2023-02-26T13:27:28.557Z,3.10
2023-02-26T13:30:11.006Z,0.70
2023-02-26T13:32:38.762Z,0.65
2023-02-26T13:35:08.212Z,0.40
2023-02-26T13:37:45.692Z,0.38
2023-02-26T13:40:12.833Z,0.20
2023-02-26T13:42:47.796Z,0.20
2023-02-26T13:45:27.314Z,0.22
2023-02-26T13:47:57.624Z,0.30
2023-02-26T13:50:43.736Z,0.40
2023-02-26T13:53:37.313Z,0.20
2023-02-26T13:56:07.326Z,0.10
2023-02-26T13:58:36.286Z,0.15
2023-02-26T14:01:09.565Z,0.40
2023-02-26T14:03:36.799Z,0.20
2023-02-26T14:06:20.929Z,0.50
2023-02-26T14:08:50.244Z,0.38
2023-02-26T14:11:36.326Z,0.13
2023-02-26T14:14:12.745Z,0.20
2023-02-26T14:16:41.459Z,0.10
2023-02-26T14:19:27.523Z,0.28
2023-02-26T14:21:57.664Z,0.30
2023-02-26T14:24:45.194Z,0.50
2023-02-26T14:27:12.335Z,0.40
2023-02-26T14:29:41.215Z,0.28
2023-02-26T14:32:11.411Z,0.50
2023-02-26T14:34:47.331Z,0.40
2023-02-26T14:37:16.433Z,0.60
2023-02-26T14:39:49.125Z,0.17
2023-02-26T14:42:19.666Z,0.28
2023-02-26T14:44:51.802Z,0.35
2023-02-26T14:47:19.142Z,0.32
2023-02-26T14:49:47.934Z,0.20
2023-02-26T14:52:33.798Z,0.35
2023-02-26T14:55:12.314Z,0.55
2023-02-26T14:57:48.463Z,0.40
2023-02-26T15:00:25.397Z,0.40
2023-02-26T15:03:10.012Z,0.32
2023-02-26T15:05:45.453Z,0.60
2023-02-26T15:08:31.250Z,0.30
2023-02-26T15:11:17.185Z,0.35
2023-02-26T15:14:04.591Z,0.40
2023-02-26T15:16:46.217Z,0.17
2023-02-26T15:19:36.576Z,0.30
2023-02-26T15:22:33.231Z,0.30
2023-02-26T15:25:02.682Z,1.50
2023-02-26T15:27:31.292Z,0.45
2023-02-26T15:29:58.603Z,1.30
2023-02-26T15:32:30.264Z,0.50
2023-02-26T15:35:01.759Z,0.60
2023-02-26T15:37:33.635Z,0.40
2023-02-26T15:42:33.767Z,0.60
2023-02-26T15:45:02.175Z,0.60
2023-02-26T15:47:30.655Z,0.40
2023-02-26T15:49:58.872Z,0.43
2023-02-26T15:52:26.725Z,0.40
2023-02-26T15:54:55.484Z,0.70
2023-02-26T15:57:24.237Z,0.73
2023-02-26T15:59:52.898Z,0.63
2023-02-26T16:02:22.913Z,0.32
2023-02-26T16:04:52.947Z,1.45
2023-02-26T16:07:20.490Z,0.47
2023-02-26T16:09:49.880Z,0.50
2023-02-26T16:12:19.527Z,0.30
2023-02-26T16:14:49.847Z,0.45
2023-02-26T16:17:27.517Z,0.30
2023-02-26T16:19:56.230Z,0.88
2023-02-26T16:22:44.336Z,1.17
2023-02-26T16:25:29.735Z,0.60
2023-02-26T16:28:01.393Z,0.88
2023-02-26T16:30:33.186Z,0.50
2023-02-26T16:33:00.510Z,0.60
2023-02-26T16:35:29.632Z,0.60
2023-02-26T16:37:56.741Z,1.15
2023-02-26T16:40:27.072Z,0.40
2023-02-26T16:43:04.713Z,0.47
2023-02-26T16:45:37.784Z,0.40
2023-02-26T16:48:13.669Z,0.45
2023-02-26T16:50:40.880Z,0.50
2023-02-26T16:53:09.728Z,0.40
2023-02-26T16:55:39.157Z,0.38
2023-02-26T16:58:07.882Z,0.32
2023-02-26T17:00:37.396Z,0.40
2023-02-26T17:03:07.880Z,0.30
2023-02-26T17:05:37.559Z,0.40
2023-02-26T17:08:16.134Z,0.40
2023-02-26T17:10:46.457Z,0.82
2023-02-26T17:13:13.932Z,1.45
2023-02-26T17:15:41.607Z,2.17
2023-02-26T17:18:08.743Z,0.75
2023-02-26T17:20:36.920Z,1.33
2023-02-26T17:23:05.519Z,0.45
2023-02-26T17:25:35.165Z,0.85
2023-02-26T17:28:02.286Z,1.15
2023-02-26T17:30:32.628Z,1.85
2023-02-26T17:33:00.790Z,1.17
2023-02-26T17:35:29.385Z,0.85
2023-02-26T17:37:57.116Z,0.95
2023-02-26T17:40:28.517Z,0.80
2023-02-26T17:42:56.997Z,1.48
2023-02-26T17:45:24.208Z,0.80
2023-02-26T17:47:51.356Z,1.42
2023-02-26T17:50:21.776Z,1.38
2023-02-26T17:52:48.859Z,1.42
2023-02-26T17:55:16.296Z,1.30
2023-02-26T17:57:43.384Z,1.35
2023-02-26T18:00:14.779Z,1.67
2023-02-26T18:02:42.093Z,1.63
2023-02-26T18:05:09.604Z,1.52
2023-02-26T18:07:37.235Z,2.05
2023-02-26T18:10:04.837Z,1.75
2023-02-26T18:12:31.989Z,1.52
2023-02-26T18:14:59.236Z,1.63
2023-02-26T18:17:28.328Z,1.40
2023-02-26T18:19:55.792Z,1.33
2023-02-26T18:22:27.576Z,2.00
2023-02-26T18:24:55.435Z,1.13
2023-02-26T18:27:23.726Z,0.80
2023-02-26T18:29:51.027Z,0.63
2023-02-26T18:32:19.670Z,1.20
2023-02-26T18:34:46.984Z,0.95
2023-02-26T18:37:15.721Z,1.25
2023-02-26T18:39:42.977Z,1.80
2023-02-26T18:42:20.303Z,1.33
2023-02-26T18:44:47.648Z,1.40
2023-02-26T18:47:14.775Z,0.70
2023-02-26T18:49:41.937Z,1.10
2023-02-26T18:52:09.111Z,1.52
2023-02-26T18:54:37.211Z,1.25
2023-02-26T18:57:05.439Z,1.15
2023-02-26T18:59:34.282Z,1.83
2023-02-26T19:02:02.362Z,1.70
2023-02-26T19:04:30.461Z,1.10
2023-02-26T19:06:57.748Z,1.00
2023-02-26T19:09:25.035Z,1.55
2023-02-26T19:11:52.144Z,2.88
2023-02-26T19:14:19.226Z,2.72
2023-02-26T19:16:46.385Z,2.35
2023-02-26T19:19:13.478Z,2.00
2023-02-26T19:21:41.024Z,1.40
2023-02-26T19:24:10.019Z,2.15
2023-02-26T19:26:37.699Z,1.45
2023-02-26T19:29:05.888Z,1.63
2023-02-26T19:31:33.230Z,1.58
2023-02-26T19:34:00.388Z,1.55
2023-02-26T19:36:27.555Z,1.35
2023-02-26T19:38:55.362Z,1.08
2023-02-26T19:41:22.499Z,1.17
2023-02-26T19:43:49.746Z,1.10
2023-02-26T19:46:16.880Z,1.58
2023-02-26T19:48:44.130Z,1.27
2023-02-26T19:51:11.222Z,0.95
2023-02-26T19:53:38.346Z,0.93
2023-02-26T19:56:05.912Z,0.70
2023-02-26T19:58:33.683Z,0.75
2023-02-26T20:01:01.764Z,0.70
2023-02-26T20:03:29.118Z,1.05
2023-02-26T20:05:57.212Z,0.77
2023-02-26T20:08:26.801Z,0.80
2023-02-26T20:10:56.246Z,0.50
2023-02-26T20:13:24.178Z,1.25
2023-02-26T20:15:53.503Z,0.90
2023-02-26T20:18:20.816Z,0.90
2023-02-26T20:20:47.962Z,0.85
2023-02-26T20:23:15.095Z,1.25
2023-02-26T20:25:43.485Z,0.93
2023-02-26T20:28:11.394Z,1.10
2023-02-26T20:30:39.177Z,1.40
2023-02-26T20:33:06.406Z,1.60
2023-02-26T20:35:33.531Z,1.30
2023-02-26T20:38:00.964Z,1.30
2023-02-26T20:40:28.047Z,1.50
2023-02-26T20:42:55.172Z,1.63
2023-02-26T20:45:22.240Z,1.55
2023-02-26T20:47:49.322Z,1.17
2023-02-26T20:50:16.499Z,0.68
2023-02-26T20:52:43.580Z,0.85
2023-02-26T20:55:10.764Z,0.90
2023-02-26T20:57:37.866Z,1.02
2023-02-26T21:00:10.504Z,1.23
2023-02-26T21:02:38.231Z,0.90
2023-02-26T21:05:05.878Z,0.90
2023-02-26T21:07:33.246Z,1.20
2023-02-26T21:10:00.382Z,1.42
2023-02-26T21:12:31.383Z,1.73
2023-02-26T21:14:58.471Z,1.30
2023-02-26T21:17:26.307Z,1.10
2023-02-26T21:19:54.028Z,2.10
2023-02-26T21:22:21.741Z,1.60
2023-02-26T21:24:48.927Z,1.63
2023-02-26T21:27:16.725Z,1.60
2023-02-26T21:29:44.111Z,1.10
2023-02-26T21:32:11.319Z,1.00
2023-02-26T21:34:38.533Z,1.42
2023-02-26T21:37:09.811Z,0.73
2023-02-26T21:39:40.735Z,0.77
2023-02-26T21:42:08.980Z,1.23
2023-02-26T21:44:36.131Z,1.40
2023-02-26T21:47:03.969Z,1.08
2023-02-26T21:49:31.925Z,1.02
2023-02-26T21:51:59.887Z,1.00
2023-02-26T21:54:27.044Z,1.02
2023-02-26T21:56:54.314Z,0.85
2023-02-26T21:59:23.127Z,0.90
2023-02-26T22:01:50.600Z,0.80
2023-02-26T22:04:17.936Z,1.48
2023-02-26T22:06:45.040Z,1.85
2023-02-26T22:09:12.456Z,2.33
2023-02-26T22:11:39.634Z,1.38
2023-02-26T22:14:06.748Z,1.27
2023-02-26T22:16:34.031Z,1.27
2023-02-26T22:19:01.186Z,0.68
2023-02-26T22:21:28.642Z,0.95
2023-02-26T22:23:55.954Z,1.05
2023-02-26T22:26:23.138Z,0.82
2023-02-26T22:28:50.256Z,0.90
2023-02-26T22:31:17.467Z,1.63
2023-02-26T22:33:44.737Z,0.60
2023-02-26T22:36:11.786Z,0.88
2023-02-26T22:38:38.972Z,1.00
2023-02-26T22:41:06.104Z,0.90
2023-02-26T22:43:33.449Z,0.77
2023-02-26T22:46:00.564Z,1.00
2023-02-26T22:48:27.684Z,1.42
2023-02-26T22:50:54.770Z,0.73
2023-02-26T22:53:21.860Z,0.85
2023-02-26T22:55:48.935Z,0.82
2023-02-26T22:58:15.999Z,1.35
2023-02-26T23:00:43.153Z,1.92
2023-02-26T23:03:10.210Z,0.82
2023-02-26T23:05:37.289Z,1.08
2023-02-26T23:08:04.573Z,1.02
2023-02-26T23:10:31.748Z,1.40
2023-02-26T23:13:00.227Z,0.93
2023-02-26T23:15:28.050Z,1.10
2023-02-26T23:17:55.489Z,1.17
2023-02-26T23:20:22.551Z,1.05
2023-02-26T23:22:49.965Z,1.20
2023-02-26T23:25:17.012Z,1.10
2023-02-26T23:27:44.248Z,0.80
2023-02-26T23:30:11.867Z,0.95
2023-02-26T23:32:39.276Z,1.23
2023-02-26T23:35:06.899Z,1.20
2023-02-26T23:37:34.001Z,1.05
2023-02-26T23:40:01.334Z,0.98
2023-02-26T23:42:28.424Z,1.40
2023-02-26T23:44:55.716Z,1.60
2023-02-26T23:47:23.051Z,1.48
2023-02-26T23:49:50.165Z,1.95
2023-02-26T23:52:17.845Z,2.15
2023-02-26T23:54:45.004Z,2.50
2023-02-26T23:57:12.399Z,2.63
2023-02-26T23:59:39.541Z,1.40
